sensor_id;sensor_type;location;lat;lon;timestamp;temperature;humidity
65369;HTU21D;51970;53.484;49.488;2023-07-13T00:00:42;16.54;68.16
65369;HTU21D;51970;53.484;49.488;2023-07-13T00:03:08;16.52;67.92
65369;HTU21D;51970;53.484;49.488;2023-07-13T00:05:35;16.50;68.05
65369;HTU21D;51970;53.484;49.488;2023-07-13T00:08:02;16.49;68.34
65369;HTU21D;51970;53.484;49.488;2023-07-13T00:10:28;16.51;68.27
65369;HTU21D;51970;53.484;49.488;2023-07-13T00:12:54;16.55;68.33
65369;HTU21D;51970;53.484;49.488;2023-07-13T00:15:25;16.60;68.52
65369;HTU21D;51970;53.484;49.488;2023-07-13T00:17:53;16.66;68.20
65369;HTU21D;51970;53.484;49.488;2023-07-13T00:20:20;16.67;68.32
65369;HTU21D;51970;53.484;49.488;2023-07-13T00:22:52;16.65;67.93
65369;HTU21D;51970;53.484;49.488;2023-07-13T00:25:21;16.63;67.24
65369;HTU21D;51970;53.484;49.488;2023-07-13T00:27:50;16.62;67.52
65369;HTU21D;51970;53.484;49.488;2023-07-13T00:30:17;16.62;67.13
65369;HTU21D;51970;53.484;49.488;2023-07-13T00:32:44;16.57;67.10
65369;HTU21D;51970;53.484;49.488;2023-07-13T00:35:10;16.54;67.03
65369;HTU21D;51970;53.484;49.488;2023-07-13T00:37:37;16.52;67.19
65369;HTU21D;51970;53.484;49.488;2023-07-13T00:40:04;16.54;67.64
65369;HTU21D;51970;53.484;49.488;2023-07-13T00:42:31;16.52;67.77
65369;HTU21D;51970;53.484;49.488;2023-07-13T00:47:47;16.52;68.17
65369;HTU21D;51970;53.484;49.488;2023-07-13T00:50:15;16.56;67.63
65369;HTU21D;51970;53.484;49.488;2023-07-13T00:52:45;16.51;67.70
65369;HTU21D;51970;53.484;49.488;2023-07-13T00:55:13;16.46;67.83
65369;HTU21D;51970;53.484;49.488;2023-07-13T00:57:41;16.50;67.94
65369;HTU21D;51970;53.484;49.488;2023-07-13T01:00:09;16.58;67.94
65369;HTU21D;51970;53.484;49.488;2023-07-13T01:02:42;16.72;67.86
65369;HTU21D;51970;53.484;49.488;2023-07-13T01:05:15;16.81;67.72
65369;HTU21D;51970;53.484;49.488;2023-07-13T01:07:43;16.94;67.03
65369;HTU21D;51970;53.484;49.488;2023-07-13T01:10:10;17.05;66.69
65369;HTU21D;51970;53.484;49.488;2023-07-13T01:12:37;17.65;65.52
65369;HTU21D;51970;53.484;49.488;2023-07-13T01:15:04;19.22;60.47
65369;HTU21D;51970;53.484;49.488;2023-07-13T01:17:33;19.30;59.54
65369;HTU21D;51970;53.484;49.488;2023-07-13T01:20:00;18.66;61.73
65369;HTU21D;51970;53.484;49.488;2023-07-13T01:22:26;18.26;63.13
65369;HTU21D;51970;53.484;49.488;2023-07-13T01:24:53;17.92;64.51
65369;HTU21D;51970;53.484;49.488;2023-07-13T01:27:22;17.79;65.01
65369;HTU21D;51970;53.484;49.488;2023-07-13T01:29:51;17.84;65.21
65369;HTU21D;51970;53.484;49.488;2023-07-13T01:32:21;18.22;63.43
65369;HTU21D;51970;53.484;49.488;2023-07-13T01:34:53;19.24;59.36
65369;HTU21D;51970;53.484;49.488;2023-07-13T01:37:21;18.97;58.70
65369;HTU21D;51970;53.484;49.488;2023-07-13T01:39:47;18.56;60.58
65369;HTU21D;51970;53.484;49.488;2023-07-13T01:42:14;18.22;61.23
65369;HTU21D;51970;53.484;49.488;2023-07-13T01:44:45;17.87;61.93
65369;HTU21D;51970;53.484;49.488;2023-07-13T01:47:11;17.64;62.49
65369;HTU21D;51970;53.484;49.488;2023-07-13T01:49:38;17.47;62.79
65369;HTU21D;51970;53.484;49.488;2023-07-13T01:52:04;17.37;62.89
65369;HTU21D;51970;53.484;49.488;2023-07-13T01:54:30;17.25;63.02
65369;HTU21D;51970;53.484;49.488;2023-07-13T01:56:57;17.26;63.15
65369;HTU21D;51970;53.484;49.488;2023-07-13T01:59:23;17.23;63.24
65369;HTU21D;51970;53.484;49.488;2023-07-13T02:01:49;17.17;63.77
65369;HTU21D;51970;53.484;49.488;2023-07-13T02:04:15;17.16;64.08
65369;HTU21D;51970;53.484;49.488;2023-07-13T02:06:42;17.15;64.22
65369;HTU21D;51970;53.484;49.488;2023-07-13T02:09:08;17.14;64.30
65369;HTU21D;51970;53.484;49.488;2023-07-13T02:11:34;17.14;64.47
65369;HTU21D;51970;53.484;49.488;2023-07-13T02:14:02;17.11;64.47
65369;HTU21D;51970;53.484;49.488;2023-07-13T02:16:29;17.18;64.48
65369;HTU21D;51970;53.484;49.488;2023-07-13T02:18:56;17.25;64.91
65369;HTU21D;51970;53.484;49.488;2023-07-13T02:21:23;17.28;64.76
65369;HTU21D;51970;53.484;49.488;2023-07-13T02:23:49;17.34;64.21
65369;HTU21D;51970;53.484;49.488;2023-07-13T02:26:16;17.38;64.03
65369;HTU21D;51970;53.484;49.488;2023-07-13T02:28:42;17.32;63.92
65369;HTU21D;51970;53.484;49.488;2023-07-13T02:31:11;17.25;64.08
65369;HTU21D;51970;53.484;49.488;2023-07-13T02:33:37;17.10;65.06
65369;HTU21D;51970;53.484;49.488;2023-07-13T02:36:04;16.94;67.94
65369;HTU21D;51970;53.484;49.488;2023-07-13T02:38:32;16.66;69.84
65369;HTU21D;51970;53.484;49.488;2023-07-13T02:41:00;16.44;71.26
65369;HTU21D;51970;53.484;49.488;2023-07-13T02:43:27;16.39;72.27
65369;HTU21D;51970;53.484;49.488;2023-07-13T02:45:53;16.40;72.79
65369;HTU21D;51970;53.484;49.488;2023-07-13T02:48:20;16.39;73.43
65369;HTU21D;51970;53.484;49.488;2023-07-13T02:50:46;16.35;73.08
65369;HTU21D;51970;53.484;49.488;2023-07-13T02:53:12;16.33;74.09
65369;HTU21D;51970;53.484;49.488;2023-07-13T02:55:38;16.48;74.37
65369;HTU21D;51970;53.484;49.488;2023-07-13T02:58:07;16.54;73.19
65369;HTU21D;51970;53.484;49.488;2023-07-13T03:00:33;16.54;72.89
65369;HTU21D;51970;53.484;49.488;2023-07-13T03:03:00;16.58;71.38
65369;HTU21D;51970;53.484;49.488;2023-07-13T03:05:26;16.70;72.00
65369;HTU21D;51970;53.484;49.488;2023-07-13T03:07:52;16.72;70.48
65369;HTU21D;51970;53.484;49.488;2023-07-13T03:10:19;16.69;70.45
65369;HTU21D;51970;53.484;49.488;2023-07-13T03:12:45;16.70;71.00
65369;HTU21D;51970;53.484;49.488;2023-07-13T03:15:11;16.70;72.80
65369;HTU21D;51970;53.484;49.488;2023-07-13T03:17:38;16.76;72.01
65369;HTU21D;51970;53.484;49.488;2023-07-13T03:20:04;16.79;73.47
65369;HTU21D;51970;53.484;49.488;2023-07-13T03:22:31;16.75;72.76
65369;HTU21D;51970;53.484;49.488;2023-07-13T03:24:57;16.77;72.90
65369;HTU21D;51970;53.484;49.488;2023-07-13T03:27:23;16.70;72.44
65369;HTU21D;51970;53.484;49.488;2023-07-13T03:29:50;16.55;73.54
65369;HTU21D;51970;53.484;49.488;2023-07-13T03:32:16;16.56;74.81
65369;HTU21D;51970;53.484;49.488;2023-07-13T03:34:42;16.56;74.09
65369;HTU21D;51970;53.484;49.488;2023-07-13T03:37:08;16.45;74.45
65369;HTU21D;51970;53.484;49.488;2023-07-13T03:39:35;16.49;74.16
65369;HTU21D;51970;53.484;49.488;2023-07-13T03:42:01;16.63;75.29
65369;HTU21D;51970;53.484;49.488;2023-07-13T03:44:27;16.67;74.39
65369;HTU21D;51970;53.484;49.488;2023-07-13T03:46:54;16.72;75.43
65369;HTU21D;51970;53.484;49.488;2023-07-13T03:49:20;16.57;73.86
65369;HTU21D;51970;53.484;49.488;2023-07-13T03:51:46;16.50;75.77
65369;HTU21D;51970;53.484;49.488;2023-07-13T03:54:13;16.59;75.22
65369;HTU21D;51970;53.484;49.488;2023-07-13T03:56:39;16.62;75.46
65369;HTU21D;51970;53.484;49.488;2023-07-13T03:59:05;16.65;74.67
65369;HTU21D;51970;53.484;49.488;2023-07-13T04:01:33;16.79;74.65
65369;HTU21D;51970;53.484;49.488;2023-07-13T04:04:00;16.91;74.33
65369;HTU21D;51970;53.484;49.488;2023-07-13T04:06:28;17.04;74.96
65369;HTU21D;51970;53.484;49.488;2023-07-13T04:08:57;17.16;72.99
65369;HTU21D;51970;53.484;49.488;2023-07-13T04:11:27;17.31;73.49
65369;HTU21D;51970;53.484;49.488;2023-07-13T04:13:54;17.45;73.33
65369;HTU21D;51970;53.484;49.488;2023-07-13T04:16:21;17.47;72.62
65369;HTU21D;51970;53.484;49.488;2023-07-13T04:18:49;17.50;72.53
65369;HTU21D;51970;53.484;49.488;2023-07-13T04:21:15;17.51;72.41
65369;HTU21D;51970;53.484;49.488;2023-07-13T04:23:42;17.59;71.83
65369;HTU21D;51970;53.484;49.488;2023-07-13T04:26:09;17.75;72.62
65369;HTU21D;51970;53.484;49.488;2023-07-13T04:28:35;17.85;70.58
65369;HTU21D;51970;53.484;49.488;2023-07-13T04:31:03;17.90;71.64
65369;HTU21D;51970;53.484;49.488;2023-07-13T04:33:30;18.00;70.91
65369;HTU21D;51970;53.484;49.488;2023-07-13T04:35:56;18.02;70.45
65369;HTU21D;51970;53.484;49.488;2023-07-13T04:38:24;18.08;70.93
65369;HTU21D;51970;53.484;49.488;2023-07-13T04:40:51;18.15;71.42
65369;HTU21D;51970;53.484;49.488;2023-07-13T04:43:18;18.13;70.40
65369;HTU21D;51970;53.484;49.488;2023-07-13T04:45:45;18.22;71.56
65369;HTU21D;51970;53.484;49.488;2023-07-13T04:48:11;18.40;70.43
65369;HTU21D;51970;53.484;49.488;2023-07-13T04:50:38;18.68;69.36
65369;HTU21D;51970;53.484;49.488;2023-07-13T04:53:04;18.94;66.71
65369;HTU21D;51970;53.484;49.488;2023-07-13T04:55:31;19.10;65.97
65369;HTU21D;51970;53.484;49.488;2023-07-13T04:57:57;19.06;65.95
65369;HTU21D;51970;53.484;49.488;2023-07-13T05:00:29;19.00;66.20
65369;HTU21D;51970;53.484;49.488;2023-07-13T05:02:57;18.83;66.84
65369;HTU21D;51970;53.484;49.488;2023-07-13T05:05:25;18.86;67.01
65369;HTU21D;51970;53.484;49.488;2023-07-13T05:07:53;19.01;66.41
65369;HTU21D;51970;53.484;49.488;2023-07-13T05:10:20;19.27;66.11
65369;HTU21D;51970;53.484;49.488;2023-07-13T05:12:46;19.52;65.66
65369;HTU21D;51970;53.484;49.488;2023-07-13T05:15:12;19.45;65.05
65369;HTU21D;51970;53.484;49.488;2023-07-13T05:17:39;19.47;64.63
65369;HTU21D;51970;53.484;49.488;2023-07-13T05:20:07;19.80;64.40
65369;HTU21D;51970;53.484;49.488;2023-07-13T05:22:34;20.00;64.34
65369;HTU21D;51970;53.484;49.488;2023-07-13T05:25:04;20.18;64.75
65369;HTU21D;51970;53.484;49.488;2023-07-13T05:27:31;20.39;62.92
65369;HTU21D;51970;53.484;49.488;2023-07-13T05:29:57;20.42;62.64
65369;HTU21D;51970;53.484;49.488;2023-07-13T05:32:23;20.41;62.46
65369;HTU21D;51970;53.484;49.488;2023-07-13T05:34:49;20.25;63.49
65369;HTU21D;51970;53.484;49.488;2023-07-13T05:37:15;20.13;64.00
65369;HTU21D;51970;53.484;49.488;2023-07-13T05:39:42;19.97;62.57
65369;HTU21D;51970;53.484;49.488;2023-07-13T05:42:08;19.73;64.02
65369;HTU21D;51970;53.484;49.488;2023-07-13T05:44:34;19.45;65.63
65369;HTU21D;51970;53.484;49.488;2023-07-13T05:47:01;19.27;67.67
65369;HTU21D;51970;53.484;49.488;2023-07-13T05:49:27;19.58;65.36
65369;HTU21D;51970;53.484;49.488;2023-07-13T05:51:53;19.86;65.16
65369;HTU21D;51970;53.484;49.488;2023-07-13T05:54:20;20.19;61.92
65369;HTU21D;51970;53.484;49.488;2023-07-13T05:56:46;20.34;60.83
65369;HTU21D;51970;53.484;49.488;2023-07-13T05:59:12;20.56;60.73
65369;HTU21D;51970;53.484;49.488;2023-07-13T06:01:39;20.93;59.26
65369;HTU21D;51970;53.484;49.488;2023-07-13T06:04:06;21.25;58.53
65369;HTU21D;51970;53.484;49.488;2023-07-13T06:06:33;21.55;56.22
65369;HTU21D;51970;53.484;49.488;2023-07-13T06:08:59;21.69;57.93
65369;HTU21D;51970;53.484;49.488;2023-07-13T06:11:27;21.66;56.93
65369;HTU21D;51970;53.484;49.488;2023-07-13T06:13:56;21.42;57.61
65369;HTU21D;51970;53.484;49.488;2023-07-13T06:16:23;21.40;58.96
65369;HTU21D;51970;53.484;49.488;2023-07-13T06:18:49;21.31;59.40
65369;HTU21D;51970;53.484;49.488;2023-07-13T06:21:17;21.15;60.35
65369;HTU21D;51970;53.484;49.488;2023-07-13T06:23:46;20.99;60.02
65369;HTU21D;51970;53.484;49.488;2023-07-13T06:26:17;20.91;61.19
65369;HTU21D;51970;53.484;49.488;2023-07-13T06:28:43;20.83;61.59
65369;HTU21D;51970;53.484;49.488;2023-07-13T06:31:11;20.91;58.69
65369;HTU21D;51970;53.484;49.488;2023-07-13T06:33:38;20.93;57.78
65369;HTU21D;51970;53.484;49.488;2023-07-13T06:36:06;20.94;56.62
65369;HTU21D;51970;53.484;49.488;2023-07-13T06:38:33;21.02;55.07
65369;HTU21D;51970;53.484;49.488;2023-07-13T06:41:00;20.93;56.32
65369;HTU21D;51970;53.484;49.488;2023-07-13T06:43:26;21.07;56.45
65369;HTU21D;51970;53.484;49.488;2023-07-13T06:45:55;21.19;56.77
65369;HTU21D;51970;53.484;49.488;2023-07-13T06:48:22;21.22;57.22
65369;HTU21D;51970;53.484;49.488;2023-07-13T06:50:49;21.13;58.22
65369;HTU21D;51970;53.484;49.488;2023-07-13T06:53:17;21.43;57.18
65369;HTU21D;51970;53.484;49.488;2023-07-13T06:55:44;21.68;56.63
65369;HTU21D;51970;53.484;49.488;2023-07-13T06:58:11;21.83;56.41
65369;HTU21D;51970;53.484;49.488;2023-07-13T07:00:38;21.43;57.36
65369;HTU21D;51970;53.484;49.488;2023-07-13T07:03:06;21.15;58.54
65369;HTU21D;51970;53.484;49.488;2023-07-13T07:05:32;21.48;58.13
65369;HTU21D;51970;53.484;49.488;2023-07-13T07:07:59;21.66;56.22
65369;HTU21D;51970;53.484;49.488;2023-07-13T07:10:25;21.74;55.61
65369;HTU21D;51970;53.484;49.488;2023-07-13T07:12:51;21.87;55.75
65369;HTU21D;51970;53.484;49.488;2023-07-13T07:15:18;21.64;54.97
65369;HTU21D;51970;53.484;49.488;2023-07-13T07:17:44;21.78;54.39
65369;HTU21D;51970;53.484;49.488;2023-07-13T07:20:11;21.94;55.17
65369;HTU21D;51970;53.484;49.488;2023-07-13T07:22:37;22.24;54.16
65369;HTU21D;51970;53.484;49.488;2023-07-13T07:25:04;22.62;53.14
65369;HTU21D;51970;53.484;49.488;2023-07-13T07:27:30;22.92;52.05
65369;HTU21D;51970;53.484;49.488;2023-07-13T07:29:57;22.83;51.95
65369;HTU21D;51970;53.484;49.488;2023-07-13T07:32:26;22.51;51.04
65369;HTU21D;51970;53.484;49.488;2023-07-13T07:34:52;22.16;51.62
65369;HTU21D;51970;53.484;49.488;2023-07-13T07:37:19;21.99;53.43
65369;HTU21D;51970;53.484;49.488;2023-07-13T07:39:45;21.77;53.94
65369;HTU21D;51970;53.484;49.488;2023-07-13T07:42:11;21.18;54.13
65369;HTU21D;51970;53.484;49.488;2023-07-13T07:44:40;20.95;54.64
65369;HTU21D;51970;53.484;49.488;2023-07-13T07:47:07;20.94;54.00
65369;HTU21D;51970;53.484;49.488;2023-07-13T07:49:35;20.88;55.11
65369;HTU21D;51970;53.484;49.488;2023-07-13T07:52:02;20.88;55.74
65369;HTU21D;51970;53.484;49.488;2023-07-13T07:54:28;21.14;55.80
65369;HTU21D;51970;53.484;49.488;2023-07-13T07:56:54;21.34;54.83
65369;HTU21D;51970;53.484;49.488;2023-07-13T07:59:20;21.22;54.02
65369;HTU21D;51970;53.484;49.488;2023-07-13T08:01:47;21.27;54.49
65369;HTU21D;51970;53.484;49.488;2023-07-13T08:04:16;21.37;53.56
65369;HTU21D;51970;53.484;49.488;2023-07-13T08:06:42;21.45;50.76
65369;HTU21D;51970;53.484;49.488;2023-07-13T08:09:09;21.20;51.34
65369;HTU21D;51970;53.484;49.488;2023-07-13T08:11:36;21.32;50.87
65369;HTU21D;51970;53.484;49.488;2023-07-13T08:14:02;21.51;52.37
65369;HTU21D;51970;53.484;49.488;2023-07-13T08:16:29;21.67;50.82
65369;HTU21D;51970;53.484;49.488;2023-07-13T08:18:55;21.77;50.37
65369;HTU21D;51970;53.484;49.488;2023-07-13T08:21:22;22.09;50.46
65369;HTU21D;51970;53.484;49.488;2023-07-13T08:23:48;22.44;49.29
65369;HTU21D;51970;53.484;49.488;2023-07-13T08:26:15;22.63;47.76
65369;HTU21D;51970;53.484;49.488;2023-07-13T08:28:41;23.06;48.24
65369;HTU21D;51970;53.484;49.488;2023-07-13T08:31:08;23.16;48.81
65369;HTU21D;51970;53.484;49.488;2023-07-13T08:33:35;23.42;49.11
65369;HTU21D;51970;53.484;49.488;2023-07-13T08:36:02;23.65;47.97
65369;HTU21D;51970;53.484;49.488;2023-07-13T08:38:28;23.38;48.01
65369;HTU21D;51970;53.484;49.488;2023-07-13T08:40:56;23.26;48.63
65369;HTU21D;51970;53.484;49.488;2023-07-13T08:43:33;23.26;49.68
65369;HTU21D;51970;53.484;49.488;2023-07-13T08:46:13;23.76;48.20
65369;HTU21D;51970;53.484;49.488;2023-07-13T08:53:55;23.91;46.12
65369;HTU21D;51970;53.484;49.488;2023-07-13T08:56:25;23.91;45.29
65369;HTU21D;51970;53.484;49.488;2023-07-13T08:59:05;23.47;46.58
65369;HTU21D;51970;53.484;49.488;2023-07-13T09:04:42;23.38;48.34
65369;HTU21D;51970;53.484;49.488;2023-07-13T09:07:46;23.10;48.63
65369;HTU21D;51970;53.484;49.488;2023-07-13T09:10:32;23.13;49.09
65369;HTU21D;51970;53.484;49.488;2023-07-13T09:13:23;23.28;48.34
65369;HTU21D;51970;53.484;49.488;2023-07-13T09:15:52;23.54;48.07
65369;HTU21D;51970;53.484;49.488;2023-07-13T09:18:27;23.89;47.00
65369;HTU21D;51970;53.484;49.488;2023-07-13T09:20:59;24.16;46.20
65369;HTU21D;51970;53.484;49.488;2023-07-13T09:23:28;24.06;45.40
65369;HTU21D;51970;53.484;49.488;2023-07-13T09:26:15;24.09;46.02
65369;HTU21D;51970;53.484;49.488;2023-07-13T09:28:45;23.84;46.45
65369;HTU21D;51970;53.484;49.488;2023-07-13T09:33:57;23.52;47.95
65369;HTU21D;51970;53.484;49.488;2023-07-13T09:36:32;23.66;46.36
65369;HTU21D;51970;53.484;49.488;2023-07-13T09:44:11;23.95;43.91
65369;HTU21D;51970;53.484;49.488;2023-07-13T09:46:39;24.06;44.83
65369;HTU21D;51970;53.484;49.488;2023-07-13T09:49:09;24.03;46.61
65369;HTU21D;51970;53.484;49.488;2023-07-13T09:51:37;24.45;45.81
65369;HTU21D;51970;53.484;49.488;2023-07-13T09:54:04;25.10;43.88
65369;HTU21D;51970;53.484;49.488;2023-07-13T09:56:30;25.31;42.79
65369;HTU21D;51970;53.484;49.488;2023-07-13T09:58:58;25.31;43.61
65369;HTU21D;51970;53.484;49.488;2023-07-13T10:01:35;25.60;42.80
65369;HTU21D;51970;53.484;49.488;2023-07-13T10:04:04;25.66;43.16
65369;HTU21D;51970;53.484;49.488;2023-07-13T10:06:37;25.56;42.26
65369;HTU21D;51970;53.484;49.488;2023-07-13T10:09:07;24.92;43.79
65369;HTU21D;51970;53.484;49.488;2023-07-13T10:11:35;24.92;43.57
65369;HTU21D;51970;53.484;49.488;2023-07-13T10:14:09;24.85;43.64
65369;HTU21D;51970;53.484;49.488;2023-07-13T10:16:36;24.99;42.82
65369;HTU21D;51970;53.484;49.488;2023-07-13T10:19:06;24.79;42.22
65369;HTU21D;51970;53.484;49.488;2023-07-13T10:21:41;24.46;42.78
65369;HTU21D;51970;53.484;49.488;2023-07-13T10:24:20;24.08;44.00
65369;HTU21D;51970;53.484;49.488;2023-07-13T10:27:36;23.74;44.80
65369;HTU21D;51970;53.484;49.488;2023-07-13T10:29:41;22.73;47.34
65369;HTU21D;51970;53.484;49.488;2023-07-13T10:32:11;22.26;49.96
65369;HTU21D;51970;53.484;49.488;2023-07-13T10:34:38;21.90;50.76
65369;HTU21D;51970;53.484;49.488;2023-07-13T10:37:06;21.05;52.30
65369;HTU21D;51970;53.484;49.488;2023-07-13T10:39:35;20.66;51.91
65369;HTU21D;51970;53.484;49.488;2023-07-13T10:42:06;20.51;52.75
65369;HTU21D;51970;53.484;49.488;2023-07-13T10:44:35;20.57;53.09
65369;HTU21D;51970;53.484;49.488;2023-07-13T10:47:05;20.37;51.69
65369;HTU21D;51970;53.484;49.488;2023-07-13T10:49:34;19.96;51.39
65369;HTU21D;51970;53.484;49.488;2023-07-13T10:52:02;19.75;51.54
65369;HTU21D;51970;53.484;49.488;2023-07-13T10:57:10;19.51;51.02
65369;HTU21D;51970;53.484;49.488;2023-07-13T10:59:41;19.35;51.28
65369;HTU21D;51970;53.484;49.488;2023-07-13T11:02:21;19.08;51.87
65369;HTU21D;51970;53.484;49.488;2023-07-13T11:04:48;19.05;52.66
65369;HTU21D;51970;53.484;49.488;2023-07-13T11:07:51;18.98;53.29
65369;HTU21D;51970;53.484;49.488;2023-07-13T11:21:32;18.94;58.02
65369;HTU21D;51970;53.484;49.488;2023-07-13T11:24:16;18.93;60.59
65369;HTU21D;51970;53.484;49.488;2023-07-13T11:26:51;18.79;62.77
65369;HTU21D;51970;53.484;49.488;2023-07-13T11:31:56;18.99;63.30
65369;HTU21D;51970;53.484;49.488;2023-07-13T11:34:35;19.18;64.14
65369;HTU21D;51970;53.484;49.488;2023-07-13T11:37:02;19.72;63.52
65369;HTU21D;51970;53.484;49.488;2023-07-13T11:39:35;20.36;62.06
65369;HTU21D;51970;53.484;49.488;2023-07-13T11:42:07;20.69;57.03
65369;HTU21D;51970;53.484;49.488;2023-07-13T11:44:35;20.60;57.39
65369;HTU21D;51970;53.484;49.488;2023-07-13T11:47:14;20.95;57.43
65369;HTU21D;51970;53.484;49.488;2023-07-13T11:49:45;21.68;53.94
65369;HTU21D;51970;53.484;49.488;2023-07-13T11:52:16;22.25;51.40
65369;HTU21D;51970;53.484;49.488;2023-07-13T11:54:48;22.25;49.20
65369;HTU21D;51970;53.484;49.488;2023-07-13T11:57:29;21.98;50.81
65369;HTU21D;51970;53.484;49.488;2023-07-13T11:59:58;21.72;49.93
65369;HTU21D;51970;53.484;49.488;2023-07-13T12:02:41;21.53;49.18
65369;HTU21D;51970;53.484;49.488;2023-07-13T12:05:14;21.33;48.57
65369;HTU21D;51970;53.484;49.488;2023-07-13T12:07:41;21.66;47.19
65369;HTU21D;51970;53.484;49.488;2023-07-13T12:10:23;21.65;48.21
65369;HTU21D;51970;53.484;49.488;2023-07-13T12:15:21;21.77;44.96
65369;HTU21D;51970;53.484;49.488;2023-07-13T12:17:48;21.95;45.28
65369;HTU21D;51970;53.484;49.488;2023-07-13T12:20:25;22.10;45.70
65369;HTU21D;51970;53.484;49.488;2023-07-13T12:22:52;21.70;46.07
65369;HTU21D;51970;53.484;49.488;2023-07-13T12:25:20;21.81;47.12
65369;HTU21D;51970;53.484;49.488;2023-07-13T12:27:49;22.22;46.46
65369;HTU21D;51970;53.484;49.488;2023-07-13T12:30:31;22.37;44.69
65369;HTU21D;51970;53.484;49.488;2023-07-13T12:35:30;22.56;45.38
65369;HTU21D;51970;53.484;49.488;2023-07-13T12:37:59;22.67;44.41
65369;HTU21D;51970;53.484;49.488;2023-07-13T12:40:32;22.64;43.13
65369;HTU21D;51970;53.484;49.488;2023-07-13T12:42:59;22.25;44.29
65369;HTU21D;51970;53.484;49.488;2023-07-13T12:45:30;22.08;44.20
65369;HTU21D;51970;53.484;49.488;2023-07-13T12:48:19;22.20;44.32
65369;HTU21D;51970;53.484;49.488;2023-07-13T12:50:48;22.26;45.03
65369;HTU21D;51970;53.484;49.488;2023-07-13T12:53:22;22.56;44.38
65369;HTU21D;51970;53.484;49.488;2023-07-13T12:55:52;22.91;42.09
65369;HTU21D;51970;53.484;49.488;2023-07-13T12:58:40;22.97;40.09
65369;HTU21D;51970;53.484;49.488;2023-07-13T13:01:13;23.08;40.58
65369;HTU21D;51970;53.484;49.488;2023-07-13T13:03:51;23.10;40.55
65369;HTU21D;51970;53.484;49.488;2023-07-13T13:06:25;23.02;40.35
65369;HTU21D;51970;53.484;49.488;2023-07-13T13:08:57;22.75;40.97
65369;HTU21D;51970;53.484;49.488;2023-07-13T13:11:28;22.73;39.91
65369;HTU21D;51970;53.484;49.488;2023-07-13T13:13:55;22.93;39.02
65369;HTU21D;51970;53.484;49.488;2023-07-13T13:16:33;22.98;38.70
65369;HTU21D;51970;53.484;49.488;2023-07-13T13:19:17;23.44;38.08
65369;HTU21D;51970;53.484;49.488;2023-07-13T13:21:45;23.38;37.27
65369;HTU21D;51970;53.484;49.488;2023-07-13T13:24:13;23.30;37.80
65369;HTU21D;51970;53.484;49.488;2023-07-13T13:26:41;23.37;37.08
65369;HTU21D;51970;53.484;49.488;2023-07-13T13:29:19;23.22;37.57
65369;HTU21D;51970;53.484;49.488;2023-07-13T13:31:46;23.18;36.92
65369;HTU21D;51970;53.484;49.488;2023-07-13T13:34:16;22.72;37.69
65369;HTU21D;51970;53.484;49.488;2023-07-13T13:36:44;22.47;38.71
65369;HTU21D;51970;53.484;49.488;2023-07-13T13:39:34;22.65;38.13
65369;HTU21D;51970;53.484;49.488;2023-07-13T13:42:00;22.81;38.36
65369;HTU21D;51970;53.484;49.488;2023-07-13T13:44:27;22.86;40.83
65369;HTU21D;51970;53.484;49.488;2023-07-13T13:46:55;22.69;42.03
65369;HTU21D;51970;53.484;49.488;2023-07-13T13:49:23;22.64;42.52
65369;HTU21D;51970;53.484;49.488;2023-07-13T13:51:51;22.54;43.83
65369;HTU21D;51970;53.484;49.488;2023-07-13T13:54:19;22.39;44.67
65369;HTU21D;51970;53.484;49.488;2023-07-13T13:56:47;22.25;44.39
65369;HTU21D;51970;53.484;49.488;2023-07-13T13:59:14;22.23;43.67
65369;HTU21D;51970;53.484;49.488;2023-07-13T14:01:42;22.42;41.91
65369;HTU21D;51970;53.484;49.488;2023-07-13T14:04:20;22.75;40.89
65369;HTU21D;51970;53.484;49.488;2023-07-13T14:06:46;22.85;40.14
65369;HTU21D;51970;53.484;49.488;2023-07-13T14:09:17;23.01;39.99
65369;HTU21D;51970;53.484;49.488;2023-07-13T14:11:44;22.56;41.50
65369;HTU21D;51970;53.484;49.488;2023-07-13T14:14:20;22.17;42.58
65369;HTU21D;51970;53.484;49.488;2023-07-13T14:16:49;22.02;43.50
65369;HTU21D;51970;53.484;49.488;2023-07-13T14:19:19;21.90;44.25
65369;HTU21D;51970;53.484;49.488;2023-07-13T14:21:45;22.38;43.43
65369;HTU21D;51970;53.484;49.488;2023-07-13T14:24:13;22.50;43.47
65369;HTU21D;51970;53.484;49.488;2023-07-13T14:26:41;22.40;43.27
65369;HTU21D;51970;53.484;49.488;2023-07-13T14:29:14;22.16;43.80
65369;HTU21D;51970;53.484;49.488;2023-07-13T14:31:41;22.10;44.08
65369;HTU21D;51970;53.484;49.488;2023-07-13T14:34:09;21.97;45.59
65369;HTU21D;51970;53.484;49.488;2023-07-13T14:36:47;21.78;46.46
65369;HTU21D;51970;53.484;49.488;2023-07-13T14:39:17;21.67;46.80
65369;HTU21D;51970;53.484;49.488;2023-07-13T14:41:44;21.58;46.37
65369;HTU21D;51970;53.484;49.488;2023-07-13T14:44:16;21.47;46.84
65369;HTU21D;51970;53.484;49.488;2023-07-13T14:46:44;21.34;47.26
65369;HTU21D;51970;53.484;49.488;2023-07-13T14:49:28;21.23;47.44
65369;HTU21D;51970;53.484;49.488;2023-07-13T14:51:57;21.15;47.59
65369;HTU21D;51970;53.484;49.488;2023-07-13T14:54:24;21.13;47.68
65369;HTU21D;51970;53.484;49.488;2023-07-13T14:56:51;21.18;47.70
65369;HTU21D;51970;53.484;49.488;2023-07-13T14:59:17;21.19;47.69
65369;HTU21D;51970;53.484;49.488;2023-07-13T15:01:46;21.15;47.45
65369;HTU21D;51970;53.484;49.488;2023-07-13T15:04:14;21.09;47.98
65369;HTU21D;51970;53.484;49.488;2023-07-13T15:06:54;21.06;48.14
65369;HTU21D;51970;53.484;49.488;2023-07-13T15:09:21;21.04;48.35
65369;HTU21D;51970;53.484;49.488;2023-07-13T15:11:47;20.98;48.28
65369;HTU21D;51970;53.484;49.488;2023-07-13T15:14:13;20.90;48.25
65369;HTU21D;51970;53.484;49.488;2023-07-13T15:16:40;20.90;47.48
65369;HTU21D;51970;53.484;49.488;2023-07-13T15:19:09;20.96;48.11
65369;HTU21D;51970;53.484;49.488;2023-07-13T15:21:36;21.03;47.92
65369;HTU21D;51970;53.484;49.488;2023-07-13T15:24:03;21.06;48.01
65369;HTU21D;51970;53.484;49.488;2023-07-13T15:26:30;21.10;46.38
65369;HTU21D;51970;53.484;49.488;2023-07-13T15:28:57;21.07;46.21
65369;HTU21D;51970;53.484;49.488;2023-07-13T15:31:25;21.07;45.98
65369;HTU21D;51970;53.484;49.488;2023-07-13T15:33:58;21.11;45.93
65369;HTU21D;51970;53.484;49.488;2023-07-13T15:36:26;21.08;45.74
65369;HTU21D;51970;53.484;49.488;2023-07-13T15:38:54;21.05;46.32
65369;HTU21D;51970;53.484;49.488;2023-07-13T15:41:25;21.09;46.47
65369;HTU21D;51970;53.484;49.488;2023-07-13T15:43:53;21.05;45.90
65369;HTU21D;51970;53.484;49.488;2023-07-13T15:46:22;20.94;47.10
65369;HTU21D;51970;53.484;49.488;2023-07-13T15:48:52;20.77;48.89
65369;HTU21D;51970;53.484;49.488;2023-07-13T15:51:23;20.66;49.44
65369;HTU21D;51970;53.484;49.488;2023-07-13T15:53:53;20.63;48.89